sensor_id;sensor_type;location;lat;lon;timestamp;P1;durP1;ratioP1;P2;durP2;ratioP2
72584;SDS011;60618;40.084;32.908;2023-02-25T00:00:32;17.98;;;9.60;;
72584;SDS011;60618;40.084;32.908;2023-02-25T00:03:01;20.20;;;9.77;;
72584;SDS011;60618;40.084;32.908;2023-02-25T00:05:28;21.15;;;8.88;;
72584;SDS011;60618;40.084;32.908;2023-02-25T00:07:57;22.70;;;10.43;;
72584;SDS011;60618;40.084;32.908;2023-02-25T00:10:24;18.90;;;10.05;;
72584;SDS011;60618;40.084;32.908;2023-02-25T00:12:52;21.95;;;10.68;;
72584;SDS011;60618;40.084;32.908;2023-02-25T00:15:18;21.03;;;10.50;;
72584;SDS011;60618;40.084;32.908;2023-02-25T00:17:45;21.48;;;11.43;;
72584;SDS011;60618;40.084;32.908;2023-02-25T00:20:13;22.67;;;11.05;;
72584;SDS011;60618;40.084;32.908;2023-02-25T00:22:41;20.25;;;9.93;;
72584;SDS011;60618;40.084;32.908;2023-02-25T00:25:08;20.20;;;9.30;;
72584;SDS011;60618;40.084;32.908;2023-02-25T00:27:35;21.43;;;10.53;;
72584;SDS011;60618;40.084;32.908;2023-02-25T00:30:02;21.10;;;9.93;;
72584;SDS011;60618;40.084;32.908;2023-02-25T00:32:30;19.02;;;9.10;;
72584;SDS011;60618;40.084;32.908;2023-02-25T00:34:57;17.30;;;8.40;;
72584;SDS011;60618;40.084;32.908;2023-02-25T00:37:23;16.80;;;8.43;;
72584;SDS011;60618;40.084;32.908;2023-02-25T00:39:50;17.47;;;8.30;;
72584;SDS011;60618;40.084;32.908;2023-02-25T00:42:17;18.67;;;8.82;;
72584;SDS011;60618;40.084;32.908;2023-02-25T00:44:45;16.95;;;8.55;;
72584;SDS011;60618;40.084;32.908;2023-02-25T00:47:14;21.25;;;10.18;;
72584;SDS011;60618;40.084;32.908;2023-02-25T00:49:46;16.58;;;8.20;;
72584;SDS011;60618;40.084;32.908;2023-02-25T00:52:14;24.00;;;11.37;;
72584;SDS011;60618;40.084;32.908;2023-02-25T00:54:41;23.95;;;11.27;;
72584;SDS011;60618;40.084;32.908;2023-02-25T00:57:08;23.38;;;11.15;;
72584;SDS011;60618;40.084;32.908;2023-02-25T00:59:35;21.45;;;9.95;;
72584;SDS011;60618;40.084;32.908;2023-02-25T01:02:02;28.02;;;12.32;;
72584;SDS011;60618;40.084;32.908;2023-02-25T01:04:29;17.73;;;8.90;;
72584;SDS011;60618;40.084;32.908;2023-02-25T01:06:57;22.55;;;11.63;;
72584;SDS011;60618;40.084;32.908;2023-02-25T01:09:24;22.67;;;10.13;;
72584;SDS011;60618;40.084;32.908;2023-02-25T01:11:53;19.90;;;9.43;;
72584;SDS011;60618;40.084;32.908;2023-02-25T01:14:24;21.27;;;10.55;;
72584;SDS011;60618;40.084;32.908;2023-02-25T01:16:52;24.83;;;11.53;;
72584;SDS011;60618;40.084;32.908;2023-02-25T01:19:22;23.92;;;10.75;;
72584;SDS011;60618;40.084;32.908;2023-02-25T01:21:54;22.02;;;10.52;;
72584;SDS011;60618;40.084;32.908;2023-02-25T01:24:24;21.33;;;9.82;;
72584;SDS011;60618;40.084;32.908;2023-02-25T01:26:57;21.23;;;10.07;;
72584;SDS011;60618;40.084;32.908;2023-02-25T01:29:27;18.30;;;9.20;;
72584;SDS011;60618;40.084;32.908;2023-02-25T01:32:02;17.10;;;8.85;;
72584;SDS011;60618;40.084;32.908;2023-02-25T01:34:29;18.38;;;8.65;;
72584;SDS011;60618;40.084;32.908;2023-02-25T01:36:56;19.85;;;9.73;;
72584;SDS011;60618;40.084;32.908;2023-02-25T01:39:24;18.80;;;8.13;;
72584;SDS011;60618;40.084;32.908;2023-02-25T01:41:53;16.47;;;8.13;;
72584;SDS011;60618;40.084;32.908;2023-02-25T01:44:28;17.00;;;9.60;;
72584;SDS011;60618;40.084;32.908;2023-02-25T01:46:55;19.92;;;10.20;;
72584;SDS011;60618;40.084;32.908;2023-02-25T01:51:52;24.63;;;11.90;;
72584;SDS011;60618;40.084;32.908;2023-02-25T01:54:23;20.33;;;9.83;;
72584;SDS011;60618;40.084;32.908;2023-02-25T01:56:51;25.35;;;12.35;;
72584;SDS011;60618;40.084;32.908;2023-02-25T01:59:25;26.40;;;12.13;;
72584;SDS011;60618;40.084;32.908;2023-02-25T02:01:54;24.58;;;10.32;;
72584;SDS011;60618;40.084;32.908;2023-02-25T02:04:21;22.95;;;10.82;;
72584;SDS011;60618;40.084;32.908;2023-02-25T02:06:52;26.17;;;12.40;;
72584;SDS011;60618;40.084;32.908;2023-02-25T02:09:21;25.30;;;12.60;;
72584;SDS011;60618;40.084;32.908;2023-02-25T02:11:51;22.63;;;11.23;;
72584;SDS011;60618;40.084;32.908;2023-02-25T02:14:19;26.00;;;11.63;;
72584;SDS011;60618;40.084;32.908;2023-02-25T02:19:55;22.73;;;10.37;;
72584;SDS011;60618;40.084;32.908;2023-02-25T02:28:01;25.85;;;11.05;;
72584;SDS011;60618;40.084;32.908;2023-02-25T02:33:28;27.13;;;12.47;;
72584;SDS011;60618;40.084;32.908;2023-02-25T02:36:23;26.50;;;12.82;;
72584;SDS011;60618;40.084;32.908;2023-02-25T02:39:13;28.65;;;12.95;;
72584;SDS011;60618;40.084;32.908;2023-02-25T02:42:01;24.23;;;10.18;;
72584;SDS011;60618;40.084;32.908;2023-02-25T02:44:30;22.85;;;11.02;;
72584;SDS011;60618;40.084;32.908;2023-02-25T02:47:22;23.03;;;10.43;;
72584;SDS011;60618;40.084;32.908;2023-02-25T02:49:57;23.20;;;11.68;;
72584;SDS011;60618;40.084;32.908;2023-02-25T02:52:30;23.30;;;10.82;;
72584;SDS011;60618;40.084;32.908;2023-02-25T02:55:20;23.60;;;12.02;;
72584;SDS011;60618;40.084;32.908;2023-02-25T02:57:51;25.58;;;12.73;;
72584;SDS011;60618;40.084;32.908;2023-02-25T03:00:23;26.60;;;12.20;;
72584;SDS011;60618;40.084;32.908;2023-02-25T03:03:04;24.58;;;12.07;;
72584;SDS011;60618;40.084;32.908;2023-02-25T03:05:35;25.42;;;12.05;;
72584;SDS011;60618;40.084;32.908;2023-02-25T03:08:06;19.05;;;9.02;;
72584;SDS011;60618;40.084;32.908;2023-02-25T03:10:39;19.10;;;8.80;;
72584;SDS011;60618;40.084;32.908;2023-02-25T03:13:06;19.37;;;8.90;;
72584;SDS011;60618;40.084;32.908;2023-02-25T03:15:33;18.67;;;8.80;;
72584;SDS011;60618;40.084;32.908;2023-02-25T03:18:09;19.35;;;9.57;;
72584;SDS011;60618;40.084;32.908;2023-02-25T03:20:44;15.68;;;6.97;;
72584;SDS011;60618;40.084;32.908;2023-02-25T03:23:22;16.90;;;8.00;;
72584;SDS011;60618;40.084;32.908;2023-02-25T03:25:54;17.53;;;8.43;;
72584;SDS011;60618;40.084;32.908;2023-02-25T03:28:30;21.08;;;9.25;;
72584;SDS011;60618;40.084;32.908;2023-02-25T03:33:57;18.17;;;7.32;;
72584;SDS011;60618;40.084;32.908;2023-02-25T03:36:33;20.08;;;9.25;;
72584;SDS011;60618;40.084;32.908;2023-02-25T03:39:07;21.83;;;9.10;;
72584;SDS011;60618;40.084;32.908;2023-02-25T03:41:37;22.05;;;9.95;;
72584;SDS011;60618;40.084;32.908;2023-02-25T03:44:08;25.10;;;12.07;;
72584;SDS011;60618;40.084;32.908;2023-02-25T03:46:40;20.95;;;10.05;;
72584;SDS011;60618;40.084;32.908;2023-02-25T03:49:09;21.85;;;9.55;;
72584;SDS011;60618;40.084;32.908;2023-02-25T03:51:42;20.17;;;9.50;;
72584;SDS011;60618;40.084;32.908;2023-02-25T03:54:12;17.77;;;8.10;;
72584;SDS011;60618;40.084;32.908;2023-02-25T03:56:40;17.90;;;9.38;;
72584;SDS011;60618;40.084;32.908;2023-02-25T03:59:14;17.67;;;8.65;;
72584;SDS011;60618;40.084;32.908;2023-02-25T04:01:43;18.95;;;9.35;;
72584;SDS011;60618;40.084;32.908;2023-02-25T04:04:13;21.27;;;9.70;;
72584;SDS011;60618;40.084;32.908;2023-02-25T04:06:40;19.60;;;9.30;;
72584;SDS011;60618;40.084;32.908;2023-02-25T04:09:07;24.80;;;11.93;;
72584;SDS011;60618;40.084;32.908;2023-02-25T04:11:33;25.50;;;11.38;;
72584;SDS011;60618;40.084;32.908;2023-02-25T04:14:01;22.73;;;11.23;;
72584;SDS011;60618;40.084;32.908;2023-02-25T04:16:28;23.23;;;11.20;;
72584;SDS011;60618;40.084;32.908;2023-02-25T04:18:55;25.33;;;11.65;;
72584;SDS011;60618;40.084;32.908;2023-02-25T04:21:26;25.58;;;12.40;;
72584;SDS011;60618;40.084;32.908;2023-02-25T04:23:57;23.27;;;10.85;;
72584;SDS011;60618;40.084;32.908;2023-02-25T04:26:25;22.65;;;10.57;;
72584;SDS011;60618;40.084;32.908;2023-02-25T04:28:52;27.00;;;11.63;;
72584;SDS011;60618;40.084;32.908;2023-02-25T04:31:19;21.33;;;10.10;;
72584;SDS011;60618;40.084;32.908;2023-02-25T04:33:46;19.92;;;9.43;;
72584;SDS011;60618;40.084;32.908;2023-02-25T04:38:58;20.73;;;9.52;;
72584;SDS011;60618;40.084;32.908;2023-02-25T04:41:30;19.20;;;8.07;;
72584;SDS011;60618;40.084;32.908;2023-02-25T04:43:59;24.83;;;11.73;;
72584;SDS011;60618;40.084;32.908;2023-02-25T04:46:27;24.48;;;11.15;;
72584;SDS011;60618;40.084;32.908;2023-02-25T04:48:54;24.95;;;12.10;;
72584;SDS011;60618;40.084;32.908;2023-02-25T04:51:21;26.77;;;12.13;;
72584;SDS011;60618;40.084;32.908;2023-02-25T04:53:48;24.53;;;11.67;;
72584;SDS011;60618;40.084;32.908;2023-02-25T04:56:15;23.95;;;11.32;;
72584;SDS011;60618;40.084;32.908;2023-02-25T04:58:42;23.27;;;11.30;;
72584;SDS011;60618;40.084;32.908;2023-02-25T05:01:09;24.27;;;12.65;;
72584;SDS011;60618;40.084;32.908;2023-02-25T05:03:36;27.52;;;12.80;;
72584;SDS011;60618;40.084;32.908;2023-02-25T05:06:04;25.87;;;12.77;;
72584;SDS011;60618;40.084;32.908;2023-02-25T05:08:32;23.85;;;12.18;;
72584;SDS011;60618;40.084;32.908;2023-02-25T05:11:00;28.70;;;13.85;;
72584;SDS011;60618;40.084;32.908;2023-02-25T05:13:28;24.58;;;12.00;;
72584;SDS011;60618;40.084;32.908;2023-02-25T05:16:02;25.13;;;12.57;;
72584;SDS011;60618;40.084;32.908;2023-02-25T05:18:36;28.33;;;13.60;;
72584;SDS011;60618;40.084;32.908;2023-02-25T05:21:12;28.30;;;13.25;;
72584;SDS011;60618;40.084;32.908;2023-02-25T05:23:43;28.83;;;13.50;;
72584;SDS011;60618;40.084;32.908;2023-02-25T05:26:11;28.35;;;13.45;;
72584;SDS011;60618;40.084;32.908;2023-02-25T05:28:39;29.38;;;13.75;;
72584;SDS011;60618;40.084;32.908;2023-02-25T05:31:07;32.33;;;14.63;;
72584;SDS011;60618;40.084;32.908;2023-02-25T05:33:35;28.92;;;14.02;;
72584;SDS011;60618;40.084;32.908;2023-02-25T05:36:09;30.23;;;14.55;;
72584;SDS011;60618;40.084;32.908;2023-02-25T05:38:37;31.17;;;14.25;;
72584;SDS011;60618;40.084;32.908;2023-02-25T05:41:04;30.70;;;14.65;;
72584;SDS011;60618;40.084;32.908;2023-02-25T05:43:32;28.90;;;14.50;;
72584;SDS011;60618;40.084;32.908;2023-02-25T05:46:00;31.13;;;14.70;;
72584;SDS011;60618;40.084;32.908;2023-02-25T05:48:27;31.02;;;15.25;;
72584;SDS011;60618;40.084;32.908;2023-02-25T05:51:05;35.20;;;15.32;;
72584;SDS011;60618;40.084;32.908;2023-02-25T05:53:34;32.80;;;14.82;;
72584;SDS011;60618;40.084;32.908;2023-02-25T05:56:02;34.67;;;14.37;;
72584;SDS011;60618;40.084;32.908;2023-02-25T05:58:32;35.78;;;15.50;;
72584;SDS011;60618;40.084;32.908;2023-02-25T06:00:59;36.53;;;16.80;;
72584;SDS011;60618;40.084;32.908;2023-02-25T06:03:32;36.70;;;18.48;;
72584;SDS011;60618;40.084;32.908;2023-02-25T06:05:59;42.95;;;19.50;;
72584;SDS011;60618;40.084;32.908;2023-02-25T06:08:26;36.77;;;19.07;;
72584;SDS011;60618;40.084;32.908;2023-02-25T06:10:53;43.95;;;20.30;;
72584;SDS011;60618;40.084;32.908;2023-02-25T06:13:20;41.13;;;19.25;;
72584;SDS011;60618;40.084;32.908;2023-02-25T06:15:47;41.20;;;19.95;;
72584;SDS011;60618;40.084;32.908;2023-02-25T06:18:14;43.55;;;20.90;;
72584;SDS011;60618;40.084;32.908;2023-02-25T06:20:41;45.70;;;22.23;;
72584;SDS011;60618;40.084;32.908;2023-02-25T06:23:07;45.65;;;21.50;;
72584;SDS011;60618;40.084;32.908;2023-02-25T06:25:34;42.78;;;21.08;;
72584;SDS011;60618;40.084;32.908;2023-02-25T06:28:04;47.10;;;20.73;;
72584;SDS011;60618;40.084;32.908;2023-02-25T06:30:34;48.90;;;21.45;;
72584;SDS011;60618;40.084;32.908;2023-02-25T06:33:00;48.97;;;20.80;;
72584;SDS011;60618;40.084;32.908;2023-02-25T06:35:27;47.35;;;21.35;;
72584;SDS011;60618;40.084;32.908;2023-02-25T06:37:55;45.35;;;20.88;;
72584;SDS011;60618;40.084;32.908;2023-02-25T06:40:23;47.30;;;20.25;;
72584;SDS011;60618;40.084;32.908;2023-02-25T06:42:50;46.50;;;21.17;;
72584;SDS011;60618;40.084;32.908;2023-02-25T06:45:17;42.57;;;19.30;;
72584;SDS011;60618;40.084;32.908;2023-02-25T06:47:44;42.05;;;21.25;;
72584;SDS011;60618;40.084;32.908;2023-02-25T06:50:11;34.35;;;16.20;;
72584;SDS011;60618;40.084;32.908;2023-02-25T06:52:38;32.25;;;15.63;;
72584;SDS011;60618;40.084;32.908;2023-02-25T06:55:05;25.67;;;13.75;;
72584;SDS011;60618;40.084;32.908;2023-02-25T06:57:32;25.93;;;12.53;;
72584;SDS011;60618;40.084;32.908;2023-02-25T06:59:59;26.13;;;12.65;;
72584;SDS011;60618;40.084;32.908;2023-02-25T07:02:26;27.05;;;13.30;;
72584;SDS011;60618;40.084;32.908;2023-02-25T07:04:53;25.15;;;13.65;;
72584;SDS011;60618;40.084;32.908;2023-02-25T07:07:22;31.00;;;14.60;;
72584;SDS011;60618;40.084;32.908;2023-02-25T07:09:49;30.23;;;15.60;;
72584;SDS011;60618;40.084;32.908;2023-02-25T07:12:16;30.70;;;15.60;;
72584;SDS011;60618;40.084;32.908;2023-02-25T07:14:43;32.47;;;15.43;;
72584;SDS011;60618;40.084;32.908;2023-02-25T07:17:09;34.10;;;15.00;;
72584;SDS011;60618;40.084;32.908;2023-02-25T07:19:36;34.65;;;16.80;;
72584;SDS011;60618;40.084;32.908;2023-02-25T07:22:03;29.90;;;15.50;;
72584;SDS011;60618;40.084;32.908;2023-02-25T07:24:30;31.60;;;15.30;;
72584;SDS011;60618;40.084;32.908;2023-02-25T07:26:57;34.83;;;18.33;;
72584;SDS011;60618;40.084;32.908;2023-02-25T07:29:24;36.00;;;16.77;;
72584;SDS011;60618;40.084;32.908;2023-02-25T07:31:51;33.53;;;16.63;;
72584;SDS011;60618;40.084;32.908;2023-02-25T07:34:18;37.50;;;19.07;;
72584;SDS011;60618;40.084;32.908;2023-02-25T07:36:45;37.72;;;18.30;;
72584;SDS011;60618;40.084;32.908;2023-02-25T07:39:12;38.78;;;18.73;;
72584;SDS011;60618;40.084;32.908;2023-02-25T07:41:39;37.72;;;19.58;;
72584;SDS011;60618;40.084;32.908;2023-02-25T07:44:06;40.55;;;20.95;;
72584;SDS011;60618;40.084;32.908;2023-02-25T07:46:33;37.73;;;18.73;;
72584;SDS011;60618;40.084;32.908;2023-02-25T07:49:01;36.92;;;19.42;;
72584;SDS011;60618;40.084;32.908;2023-02-25T07:51:29;38.80;;;20.70;;
72584;SDS011;60618;40.084;32.908;2023-02-25T07:53:58;39.90;;;20.30;;
72584;SDS011;60618;40.084;32.908;2023-02-25T07:56:27;37.67;;;20.15;;
72584;SDS011;60618;40.084;32.908;2023-02-25T07:58:56;40.67;;;20.57;;
72584;SDS011;60618;40.084;32.908;2023-02-25T08:01:28;40.13;;;19.92;;
72584;SDS011;60618;40.084;32.908;2023-02-25T08:03:57;39.17;;;19.05;;
72584;SDS011;60618;40.084;32.908;2023-02-25T08:06:26;35.70;;;18.95;;
72584;SDS011;60618;40.084;32.908;2023-02-25T08:08:53;35.03;;;18.35;;
72584;SDS011;60618;40.084;32.908;2023-02-25T08:11:21;35.87;;;18.37;;
72584;SDS011;60618;40.084;32.908;2023-02-25T08:13:50;35.67;;;18.67;;
72584;SDS011;60618;40.084;32.908;2023-02-25T08:16:18;35.75;;;19.52;;
72584;SDS011;60618;40.084;32.908;2023-02-25T08:18:48;38.20;;;19.58;;
72584;SDS011;60618;40.084;32.908;2023-02-25T08:21:16;40.45;;;20.23;;
72584;SDS011;60618;40.084;32.908;2023-02-25T08:23:44;41.30;;;21.53;;
72584;SDS011;60618;40.084;32.908;2023-02-25T08:26:11;41.42;;;20.50;;
72584;SDS011;60618;40.084;32.908;2023-02-25T08:28:38;42.25;;;22.20;;
72584;SDS011;60618;40.084;32.908;2023-02-25T08:31:06;41.00;;;22.08;;
72584;SDS011;60618;40.084;32.908;2023-02-25T08:33:34;40.28;;;21.33;;
72584;SDS011;60618;40.084;32.908;2023-02-25T08:38:39;43.28;;;21.40;;
72584;SDS011;60618;40.084;32.908;2023-02-25T08:41:06;52.05;;;24.60;;
72584;SDS011;60618;40.084;32.908;2023-02-25T08:43:34;48.42;;;23.52;;
72584;SDS011;60618;40.084;32.908;2023-02-25T08:46:02;52.05;;;25.08;;
72584;SDS011;60618;40.084;32.908;2023-02-25T08:48:30;47.83;;;25.07;;
72584;SDS011;60618;40.084;32.908;2023-02-25T08:51:01;50.33;;;25.27;;
72584;SDS011;60618;40.084;32.908;2023-02-25T08:53:29;48.45;;;24.75;;
72584;SDS011;60618;40.084;32.908;2023-02-25T08:55:55;49.75;;;24.98;;
72584;SDS011;60618;40.084;32.908;2023-02-25T08:58:22;51.42;;;27.10;;
72584;SDS011;60618;40.084;32.908;2023-02-25T09:00:49;33.60;;;18.77;;
72584;SDS011;60618;40.084;32.908;2023-02-25T09:03:16;33.97;;;19.40;;
72584;SDS011;60618;40.084;32.908;2023-02-25T09:05:44;32.70;;;18.67;;
72584;SDS011;60618;40.084;32.908;2023-02-25T09:08:16;36.90;;;20.00;;
72584;SDS011;60618;40.084;32.908;2023-02-25T09:10:43;43.30;;;22.08;;
72584;SDS011;60618;40.084;32.908;2023-02-25T09:13:16;37.67;;;21.07;;
72584;SDS011;60618;40.084;32.908;2023-02-25T09:15:43;40.67;;;20.73;;
72584;SDS011;60618;40.084;32.908;2023-02-25T09:18:10;38.47;;;21.83;;
72584;SDS011;60618;40.084;32.908;2023-02-25T09:20:37;44.35;;;22.52;;
72584;SDS011;60618;40.084;32.908;2023-02-25T09:23:04;36.03;;;21.13;;
72584;SDS011;60618;40.084;32.908;2023-02-25T09:25:32;39.80;;;21.07;;
72584;SDS011;60618;40.084;32.908;2023-02-25T09:27:59;36.72;;;20.08;;
72584;SDS011;60618;40.084;32.908;2023-02-25T09:30:26;32.40;;;19.85;;
72584;SDS011;60618;40.084;32.908;2023-02-25T09:32:53;30.67;;;18.67;;
72584;SDS011;60618;40.084;32.908;2023-02-25T09:35:20;31.83;;;18.50;;
72584;SDS011;60618;40.084;32.908;2023-02-25T09:37:47;33.53;;;18.47;;
72584;SDS011;60618;40.084;32.908;2023-02-25T09:40:15;31.85;;;17.02;;
72584;SDS011;60618;40.084;32.908;2023-02-25T09:45:29;26.35;;;16.08;;
72584;SDS011;60618;40.084;32.908;2023-02-25T09:47:59;30.52;;;17.98;;
72584;SDS011;60618;40.084;32.908;2023-02-25T09:50:34;28.67;;;16.50;;
72584;SDS011;60618;40.084;32.908;2023-02-25T09:55:52;28.00;;;16.58;;
72584;SDS011;60618;40.084;32.908;2023-02-25T10:11:50;25.55;;;15.60;;
72584;SDS011;60618;40.084;32.908;2023-02-25T10:22:42;26.58;;;15.93;;
72584;SDS011;60618;40.084;32.908;2023-02-25T10:25:17;24.55;;;15.38;;
72584;SDS011;60618;40.084;32.908;2023-02-25T10:27:50;28.67;;;16.77;;
72584;SDS011;60618;40.084;32.908;2023-02-25T10:30:41;26.70;;;15.50;;
72584;SDS011;60618;40.084;32.908;2023-02-25T10:33:34;27.67;;;15.60;;
72584;SDS011;60618;40.084;32.908;2023-02-25T10:36:07;26.45;;;16.98;;
72584;SDS011;60618;40.084;32.908;2023-02-25T10:55:25;31.23;;;18.08;;
72584;SDS011;60618;40.084;32.908;2023-02-25T10:58:02;27.85;;;17.10;;
72584;SDS011;60618;40.084;32.908;2023-02-25T11:00:31;31.17;;;17.60;;
72584;SDS011;60618;40.084;32.908;2023-02-25T11:03:00;29.95;;;17.08;;
72584;SDS011;60618;40.084;32.908;2023-02-25T11:08:03;30.25;;;17.27;;
72584;SDS011;60618;40.084;32.908;2023-02-25T11:10:30;28.90;;;17.85;;
72584;SDS011;60618;40.084;32.908;2023-02-25T11:12:58;27.63;;;16.83;;
72584;SDS011;60618;40.084;32.908;2023-02-25T11:15:33;27.55;;;16.48;;
72584;SDS011;60618;40.084;32.908;2023-02-25T11:18:27;32.63;;;17.30;;
72584;SDS011;60618;40.084;32.908;2023-02-25T11:23:57;25.25;;;15.27;;
72584;SDS011;60618;40.084;32.908;2023-02-25T11:26:28;26.53;;;16.70;;
72584;SDS011;60618;40.084;32.908;2023-02-25T11:29:03;27.30;;;16.80;;
72584;SDS011;60618;40.084;32.908;2023-02-25T11:31:35;29.00;;;17.55;;
72584;SDS011;60618;40.084;32.908;2023-02-25T11:34:05;33.38;;;22.63;;
72584;SDS011;60618;40.084;32.908;2023-02-25T11:36:43;35.13;;;21.58;;
72584;SDS011;60618;40.084;32.908;2023-02-25T11:39:19;30.20;;;16.73;;
72584;SDS011;60618;40.084;32.908;2023-02-25T11:41:51;27.23;;;16.10;;
72584;SDS011;60618;40.084;32.908;2023-02-25T11:44:25;32.03;;;16.05;;
72584;SDS011;60618;40.084;32.908;2023-02-25T11:47:24;26.80;;;16.13;;
72584;SDS011;60618;40.084;32.908;2023-02-25T11:50:43;27.77;;;16.63;;
72584;SDS011;60618;40.084;32.908;2023-02-25T12:04:50;19.20;;;11.98;;
72584;SDS011;60618;40.084;32.908;2023-02-25T12:07:27;21.07;;;12.80;;
72584;SDS011;60618;40.084;32.908;2023-02-25T12:16:44;20.60;;;12.10;;
72584;SDS011;60618;40.084;32.908;2023-02-25T12:22:14;22.30;;;12.70;;
72584;SDS011;60618;40.084;32.908;2023-02-25T12:25:14;24.67;;;13.77;;
72584;SDS011;60618;40.084;32.908;2023-02-25T12:36:05;25.93;;;13.30;;
72584;SDS011;60618;40.084;32.908;2023-02-25T12:38:53;23.75;;;15.85;;
72584;SDS011;60618;40.084;32.908;2023-02-25T12:41:39;20.52;;;12.20;;
72584;SDS011;60618;40.084;32.908;2023-02-25T12:50:28;21.70;;;11.60;;
72584;SDS011;60618;40.084;32.908;2023-02-25T13:13:43;13.02;;;7.00;;
72584;SDS011;60618;40.084;32.908;2023-02-25T13:25:43;13.93;;;6.63;;
72584;SDS011;60618;40.084;32.908;2023-02-25T13:31:14;12.40;;;6.65;;
72584;SDS011;60618;40.084;32.908;2023-02-25T13:33:52;11.73;;;6.77;;
72584;SDS011;60618;40.084;32.908;2023-02-25T13:44:31;12.18;;;6.57;;
72584;SDS011;60618;40.084;32.908;2023-02-25T13:50:24;10.77;;;6.10;;
72584;SDS011;60618;40.084;32.908;2023-02-25T13:55:59;13.25;;;6.47;;
72584;SDS011;60618;40.084;32.908;2023-02-25T14:07:21;13.32;;;6.00;;
72584;SDS011;60618;40.084;32.908;2023-02-25T14:22:03;10.75;;;6.30;;
72584;SDS011;60618;40.084;32.908;2023-02-25T14:24:44;12.02;;;6.22;;
72584;SDS011;60618;40.084;32.908;2023-02-25T14:32:41;11.25;;;6.15;;
72584;SDS011;60618;40.084;32.908;2023-02-25T14:38:08;9.88;;;5.90;;
72584;SDS011;60618;40.084;32.908;2023-02-25T14:57:02;14.13;;;5.97;;
72584;SDS011;60618;40.084;32.908;2023-02-25T15:02:21;11.23;;;6.22;;
72584;SDS011;60618;40.084;32.908;2023-02-25T15:10:42;11.03;;;5.60;;
72584;SDS011;60618;40.084;32.908;2023-02-25T15:22:35;14.77;;;6.60;;
72584;SDS011;60618;40.084;32.908;2023-02-25T15:27:51;14.20;;;6.90;;
72584;SDS011;60618;40.084;32.908;2023-02-25T15:30:23;14.80;;;6.53;;
72584;SDS011;60618;40.084;32.908;2023-02-25T15:38:01;11.63;;;5.80;;
72584;SDS011;60618;40.084;32.908;2023-02-25T15:45:40;9.20;;;5.72;;
72584;SDS011;60618;40.084;32.908;2023-02-25T15:53:35;11.05;;;5.80;;
72584;SDS011;60618;40.084;32.908;2023-02-25T16:06:03;11.52;;;6.35;;
72584;SDS011;60618;40.084;32.908;2023-02-25T16:09:00;14.27;;;6.47;;
72584;SDS011;60618;40.084;32.908;2023-02-25T16:11:49;18.20;;;6.95;;
72584;SDS011;60618;40.084;32.908;2023-02-25T16:14:20;13.50;;;7.10;;
72584;SDS011;60618;40.084;32.908;2023-02-25T16:17:04;15.47;;;7.70;;
72584;SDS011;60618;40.084;32.908;2023-02-25T16:19:45;14.25;;;7.35;;
72584;SDS011;60618;40.084;32.908;2023-02-25T16:22:21;14.80;;;6.85;;
72584;SDS011;60618;40.084;32.908;2023-02-25T16:24:53;12.45;;;6.22;;
72584;SDS011;60618;40.084;32.908;2023-02-25T16:31:13;11.30;;;6.17;;
72584;SDS011;60618;40.084;32.908;2023-02-25T16:33:48;13.77;;;6.72;;
72584;SDS011;60618;40.084;32.908;2023-02-25T16:36:36;13.00;;;6.47;;
72584;SDS011;60618;40.084;32.908;2023-02-25T16:41:40;12.75;;;6.38;;
72584;SDS011;60618;40.084;32.908;2023-02-25T16:44:08;13.47;;;6.77;;
72584;SDS011;60618;40.084;32.908;2023-02-25T16:46:35;14.57;;;6.72;;
72584;SDS011;60618;40.084;32.908;2023-02-25T16:49:08;15.50;;;6.80;;
72584;SDS011;60618;40.084;32.908;2023-02-25T16:51:40;15.75;;;6.93;;
72584;SDS011;60618;40.084;32.908;2023-02-25T16:54:21;18.75;;;7.00;;
72584;SDS011;60618;40.084;32.908;2023-02-25T16:56:54;15.73;;;6.67;;
72584;SDS011;60618;40.084;32.908;2023-02-25T16:59:24;13.25;;;6.82;;
72584;SDS011;60618;40.084;32.908;2023-02-25T17:01:55;10.05;;;6.20;;
72584;SDS011;60618;40.084;32.908;2023-02-25T17:04:24;12.48;;;6.38;;
72584;SDS011;60618;40.084;32.908;2023-02-25T17:09:33;11.50;;;5.90;;
72584;SDS011;60618;40.084;32.908;2023-02-25T17:12:01;12.63;;;6.88;;
72584;SDS011;60618;40.084;32.908;2023-02-25T17:14:29;12.43;;;6.70;;
72584;SDS011;60618;40.084;32.908;2023-02-25T17:16:57;12.43;;;6.45;;
72584;SDS011;60618;40.084;32.908;2023-02-25T17:19:24;14.70;;;7.10;;
72584;SDS011;60618;40.084;32.908;2023-02-25T17:21:55;13.80;;;7.40;;
72584;SDS011;60618;40.084;32.908;2023-02-25T17:24:29;14.23;;;6.80;;
72584;SDS011;60618;40.084;32.908;2023-02-25T17:26:58;15.23;;;7.10;;
72584;SDS011;60618;40.084;32.908;2023-02-25T17:29:33;15.50;;;7.35;;
72584;SDS011;60618;40.084;32.908;2023-02-25T17:32:10;13.63;;;7.00;;
72584;SDS011;60618;40.084;32.908;2023-02-25T17:34:45;11.87;;;6.40;;
72584;SDS011;60618;40.084;32.908;2023-02-25T17:37:14;13.30;;;7.32;;
72584;SDS011;60618;40.084;32.908;2023-02-25T17:39:42;13.70;;;7.25;;
72584;SDS011;60618;40.084;32.908;2023-02-25T17:42:29;13.38;;;6.35;;
72584;SDS011;60618;40.084;32.908;2023-02-25T17:44:59;16.65;;;8.05;;
72584;SDS011;60618;40.084;32.908;2023-02-25T17:47:31;18.40;;;8.40;;
72584;SDS011;60618;40.084;32.908;2023-02-25T17:50:22;16.52;;;8.20;;
72584;SDS011;60618;40.084;32.908;2023-02-25T17:52:55;15.80;;;8.45;;
72584;SDS011;60618;40.084;32.908;2023-02-25T17:55:26;17.30;;;8.50;;
72584;SDS011;60618;40.084;32.908;2023-02-25T17:57:57;18.75;;;9.27;;
72584;SDS011;60618;40.084;32.908;2023-02-25T18:00:28;26.13;;;9.50;;
72584;SDS011;60618;40.084;32.908;2023-02-25T18:05:36;16.98;;;8.50;;
72584;SDS011;60618;40.084;32.908;2023-02-25T18:08:18;15.02;;;8.52;;
72584;SDS011;60618;40.084;32.908;2023-02-25T18:10:49;15.52;;;7.70;;
72584;SDS011;60618;40.084;32.908;2023-02-25T18:13:27;16.67;;;7.70;;
72584;SDS011;60618;40.084;32.908;2023-02-25T18:16:09;14.48;;;7.82;;
72584;SDS011;60618;40.084;32.908;2023-02-25T18:18:49;12.68;;;7.20;;
72584;SDS011;60618;40.084;32.908;2023-02-25T18:21:17;15.20;;;7.65;;
72584;SDS011;60618;40.084;32.908;2023-02-25T18:23:45;15.70;;;8.07;;
72584;SDS011;60618;40.084;32.908;2023-02-25T18:26:15;14.83;;;6.90;;
72584;SDS011;60618;40.084;32.908;2023-02-25T18:28:55;12.63;;;7.00;;
72584;SDS011;60618;40.084;32.908;2023-02-25T18:31:23;16.42;;;7.38;;
72584;SDS011;60618;40.084;32.908;2023-02-25T18:33:50;14.40;;;7.28;;
72584;SDS011;60618;40.084;32.908;2023-02-25T18:36:21;15.98;;;7.68;;
72584;SDS011;60618;40.084;32.908;2023-02-25T18:38:51;16.60;;;7.93;;
72584;SDS011;60618;40.084;32.908;2023-02-25T18:41:20;14.10;;;7.53;;
72584;SDS011;60618;40.084;32.908;2023-02-25T18:43:47;13.50;;;7.60;;
72584;SDS011;60618;40.084;32.908;2023-02-25T18:46:15;14.50;;;7.40;;
72584;SDS011;60618;40.084;32.908;2023-02-25T18:48:42;16.25;;;7.57;;
72584;SDS011;60618;40.084;32.908;2023-02-25T18:51:21;15.70;;;7.67;;
72584;SDS011;60618;40.084;32.908;2023-02-25T18:53:48;14.60;;;7.38;;